Cape Sakura — 7JHZ — position and weather

sailwx.info

Track history (hours):
 
Tides and Currents Weather Stations Pressure Air Temp Water Temp Dewpoint Dewpoint Depression Visibility Wind Speed Wind Dir Waves Ship Positions

Cape Sakura

Last reported at 2017-Jan-23 12:31 UTC. Time now 2017-Jan-23 12:45 UTC.
Position N 51°58' E 004°07'.

Length 292 m; draft 17.8 m.

Type: Cargo ship. MMSI: 432786000.

Date/timePositionNaut miles runAvg speedWind from/ knotsBaromVisibWave heightAir tempDewpointWater temp
2017-Jan-23 12:31N 51°58' E 004°07'0 0.0
2017-Jan-23 11:31N 51°58' E 004°07'0 0.0
2017-Jan-23 10:31N 51°58' E 004°07'0 0.0
2017-Jan-23 09:31N 51°58' E 004°07'0 0.0
2017-Jan-23 08:31N 51°58' E 004°07'0 0.0
2017-Jan-23 07:31N 51°58' E 004°07'0 0.0
2017-Jan-23 06:31N 51°58' E 004°07'0 0.0
2017-Jan-23 05:31N 51°58' E 004°07'0 0.0
2017-Jan-23 04:31N 51°58' E 004°07'0 0.0
2017-Jan-23 03:31N 51°58' E 004°07'0 0.0
2017-Jan-23 02:31N 51°58' E 004°07'0 0.0
2017-Jan-23 01:31N 51°58' E 004°07'0 0.0
2017-Jan-23 00:31N 51°58' E 004°07'0 0.0
2017-Jan-22 23:31N 51°58' E 004°07'0 0.0
2017-Jan-22 22:32N 51°58' E 004°07'0 0.0
2017-Jan-22 21:31N 51°58' E 004°07'0 0.0
2017-Jan-22 20:32N 51°58' E 004°07'0 0.0
2017-Jan-22 19:31N 51°58' E 004°07'0 0.0
2017-Jan-22 18:31N 51°58' E 004°07'0 0.0
2017-Jan-22 17:31N 51°58' E 004°07'0 0.0
2017-Jan-22 16:32N 51°58' E 004°07'0 0.0
2017-Jan-22 15:31N 51°58' E 004°07'0 0.0
2017-Jan-22 14:31N 51°58' E 004°07'0 0.0
2017-Jan-22 13:31N 51°58' E 004°07'0 0.0
2017-Jan-22 12:31N 51°58' E 004°07'0 0.0
2017-Jan-22 11:31N 51°58' E 004°07'0 0.0
2017-Jan-22 10:32N 51°58' E 004°07'0 0.0
2017-Jan-22 09:32N 51°58' E 004°07'0 0.0
2017-Jan-22 08:33N 51°58' E 004°07'1 1.4
2017-Jan-22 07:33N 51°59' E 004°05'7 7.1
2017-Jan-22 06:33N 52°01' E 003°54'9 9.5
2017-Jan-22 05:33N 52°01' E 003°39'8 8.3
2017-Jan-22 04:32N 51°59' E 003°25'8 8.0
2017-Jan-22 03:32N 51°58' E 003°12'8 7.7
2017-Jan-22 02:33N 51°58' E 003°00'5 5.0
2017-Jan-22 01:31N 51°54' E 002°55'0 0.0
2017-Jan-21 13:09N 51°54' E 002°55'0 0.1
2017-Jan-21 11:32N 51°54' E 002°55'0 0.0
2017-Jan-21 03:29N 51°54' E 002°55'0 0.0
2017-Jan-21 02:33N 51°54' E 002°55'0 0.0
2017-Jan-21 01:30N 51°54' E 002°55'0 0.1
2017-Jan-21 00:23N 51°54' E 002°55'0 0.1
2017-Jan-20 23:27N 51°54' E 002°55'0 0.1
2017-Jan-20 22:33N 51°54' E 002°55'0 0.1
2017-Jan-20 21:29N 51°54' E 002°55'0 0.1
2017-Jan-20 20:29N 51°54' E 002°55'0 0.1
2017-Jan-20 19:33N 51°54' E 002°55'0 0.3
2017-Jan-20 18:32N 51°54' E 002°55'0 0.1
2017-Jan-20 15:33N 51°54' E 002°55'0 0.0
2017-Jan-20 14:30N 51°54' E 002°55'0 0.0
2017-Jan-20 13:33N 51°54' E 002°55'0 0.0
2017-Jan-20 12:33N 51°54' E 002°55'0 0.1
2017-Jan-20 11:33N 51°54' E 002°55'0 0.2
2017-Jan-20 10:32N 51°54' E 002°55'0 0.1
2017-Jan-20 09:32N 51°54' E 002°55'0 0.1
2017-Jan-20 08:32N 51°54' E 002°55'0 0.0
2017-Jan-20 07:26N 51°54' E 002°55'0 0.0
2017-Jan-20 06:23N 51°54' E 002°55'0 0.1
2017-Jan-20 03:27N 51°54' E 002°55'0 0.0
2017-Jan-20 02:21N 51°54' E 002°55'0 0.0
2017-Jan-20 01:27N 51°54' E 002°55'0 0.0
2017-Jan-20 00:23N 51°54' E 002°55'0 0.0
2017-Jan-19 23:32N 51°54' E 002°55'0 0.1
2017-Jan-19 22:32N 51°54' E 002°55'0 0.2
2017-Jan-19 21:32N 51°54' E 002°55'0 0.1
2017-Jan-19 20:08N 51°54' E 002°55'0 0.0
2017-Jan-19 19:32N 51°54' E 002°55'0 0.1
2017-Jan-19 16:18N 51°54' E 002°55'0 0.0
2017-Jan-19 14:18N 51°54' E 002°55'0 0.0
2017-Jan-19 13:26N 51°54' E 002°55'0 0.0
2017-Jan-19 12:27N 51°54' E 002°55'0 0.1
2017-Jan-19 11:29N 51°54' E 002°55'0 0.2
2017-Jan-19 10:33N 51°54' E 002°55'0 0.2
2017-Jan-19 09:32N 51°54' E 002°55'0 0.1
2017-Jan-19 08:21N 51°54' E 002°55'0 0.0
2017-Jan-19 07:26N 51°54' E 002°55'0 0.0
2017-Jan-19 06:33N 51°54' E 002°55'0 0.0
2017-Jan-19 05:30N 51°54' E 002°55'0 0.2
2017-Jan-19 04:33N 51°54' E 002°55'0 0.2
2017-Jan-19 03:32N 51°54' E 002°55'0 0.0
2017-Jan-19 02:15N 51°54' E 002°55'0 0.0
2017-Jan-19 01:23N 51°54' E 002°55'0 0.0
2017-Jan-19 00:33N 51°54' E 002°55'0 0.0
2017-Jan-18 23:24N 51°54' E 002°55'0 0.1
2017-Jan-18 22:17N 51°54' E 002°55'0 0.2
2017-Jan-18 21:33N 51°54' E 002°55'0 0.0
2017-Jan-18 17:32N 51°54' E 002°55'0 0.1
2017-Jan-18 13:05N 51°54' E 002°55'0 0.0
2017-Jan-18 12:30N 51°54' E 002°55'0 0.0
2017-Jan-18 10:33N 51°54' E 002°55'0 0.2
2017-Jan-18 09:33N 51°54' E 002°55'0 0.0
2017-Jan-18 00:33N 51°54' E 002°55'0 0.1
2017-Jan-17 21:23N 51°54' E 002°55'0 0.2
2017-Jan-17 20:33N 51°54' E 002°55'0 0.0
2017-Jan-17 18:30N 51°54' E 002°55'0 0.0
2017-Jan-17 17:21N 51°54' E 002°55'0 0.0
2017-Jan-17 16:15N 51°54' E 002°55'0 0.1
2017-Jan-17 15:32N 51°54' E 002°55'0 0.1
2017-Jan-17 13:30N 51°54' E 002°55'0 0.0
2017-Jan-17 12:18N 51°54' E 002°55'0 0.0
2017-Jan-17 11:33N 51°54' E 002°55'0 0.0
2017-Jan-17 10:21N 51°54' E 002°55'0 0.2
2017-Jan-17 09:32N 51°54' E 002°55'0 0.2
2017-Jan-17 08:32N 51°54' E 002°55'0 0.1
2017-Jan-17 07:23N 51°54' E 002°55'0 0.1
2017-Jan-17 06:32N 51°54' E 002°55'0 0.0
2017-Jan-17 05:32N 51°54' E 002°55'0 0.0
2017-Jan-17 04:29N 51°54' E 002°55'0 0.0
2017-Jan-17 03:33N 51°54' E 002°55'0 0.2
2017-Jan-17 01:32N 51°54' E 002°55'0 0.0
2017-Jan-17 00:32N 51°54' E 002°55'0 0.0
2017-Jan-16 23:29N 51°54' E 002°55'0 0.0
2017-Jan-16 16:17N 51°54' E 002°55'0 0.0
2017-Jan-16 15:33N 51°54' E 002°55'0 0.2
2017-Jan-16 14:30N 51°54' E 002°55'0 0.0
2017-Jan-16 08:30N 51°54' E 002°55'0 0.1
2017-Jan-16 06:33N 51°54' E 002°55'0 0.0
2017-Jan-16 05:32N 51°54' E 002°55'0 0.0
2017-Jan-16 04:27N 51°54' E 002°55'0 0.1
2017-Jan-16 03:32N 51°54' E 002°55'0 0.2
2017-Jan-16 02:30N 51°54' E 002°55'0 0.2
2017-Jan-16 01:32N 51°54' E 002°55'0 0.1
2017-Jan-16 00:33N 51°54' E 002°54'  
Track history (hours):
 
Tides and Currents Weather Stations Pressure Air Temp Water Temp Dewpoint Dewpoint Depression Visibility Wind Speed Wind Dir Waves Ship Positions

Cape Sakura

Last reported at 2017-Jan-23 12:31 UTC. Time now 2017-Jan-23 12:45 UTC.
Position N 51°58' E 004°07'.

Length 292 m; draft 17.8 m.

Type: Cargo ship. MMSI: 432786000.

Date/timePositionNaut miles runAvg speedWind from/ knotsBaromVisibWave heightAir tempDewpointWater temp
2017-Jan-23 12:31N 51°58' E 004°07'0 0.0
2017-Jan-23 11:31N 51°58' E 004°07'0 0.0
2017-Jan-23 10:31N 51°58' E 004°07'0 0.0
2017-Jan-23 09:31N 51°58' E 004°07'0 0.0
2017-Jan-23 08:31N 51°58' E 004°07'0 0.0
2017-Jan-23 07:31N 51°58' E 004°07'0 0.0
2017-Jan-23 06:31N 51°58' E 004°07'0 0.0
2017-Jan-23 05:31N 51°58' E 004°07'0 0.0
2017-Jan-23 04:31N 51°58' E 004°07'0 0.0
2017-Jan-23 03:31N 51°58' E 004°07'0 0.0
2017-Jan-23 02:31N 51°58' E 004°07'0 0.0
2017-Jan-23 01:31N 51°58' E 004°07'0 0.0
2017-Jan-23 00:31N 51°58' E 004°07'0 0.0
2017-Jan-22 23:31N 51°58' E 004°07'0 0.0
2017-Jan-22 22:32N 51°58' E 004°07'0 0.0
2017-Jan-22 21:31N 51°58' E 004°07'0 0.0
2017-Jan-22 20:32N 51°58' E 004°07'0 0.0
2017-Jan-22 19:31N 51°58' E 004°07'0 0.0
2017-Jan-22 18:31N 51°58' E 004°07'0 0.0
2017-Jan-22 17:31N 51°58' E 004°07'0 0.0
2017-Jan-22 16:32N 51°58' E 004°07'0 0.0
2017-Jan-22 15:31N 51°58' E 004°07'0 0.0
2017-Jan-22 14:31N 51°58' E 004°07'0 0.0
2017-Jan-22 13:31N 51°58' E 004°07'0 0.0
2017-Jan-22 12:31N 51°58' E 004°07'0 0.0
2017-Jan-22 11:31N 51°58' E 004°07'0 0.0
2017-Jan-22 10:32N 51°58' E 004°07'0 0.0
2017-Jan-22 09:32N 51°58' E 004°07'0 0.0
2017-Jan-22 08:33N 51°58' E 004°07'1 1.4
2017-Jan-22 07:33N 51°59' E 004°05'7 7.1
2017-Jan-22 06:33N 52°01' E 003°54'9 9.5
2017-Jan-22 05:33N 52°01' E 003°39'8 8.3
2017-Jan-22 04:32N 51°59' E 003°25'8 8.0
2017-Jan-22 03:32N 51°58' E 003°12'8 7.7
2017-Jan-22 02:33N 51°58' E 003°00'5 5.0
2017-Jan-22 01:31N 51°54' E 002°55'0 0.0
2017-Jan-21 13:09N 51°54' E 002°55'0 0.1
2017-Jan-21 11:32N 51°54' E 002°55'0 0.0
2017-Jan-21 03:29N 51°54' E 002°55'0 0.0
2017-Jan-21 02:33N 51°54' E 002°55'0 0.0
2017-Jan-21 01:30N 51°54' E 002°55'0 0.1
2017-Jan-21 00:23N 51°54' E 002°55'0 0.1
2017-Jan-20 23:27N 51°54' E 002°55'0 0.1
2017-Jan-20 22:33N 51°54' E 002°55'0 0.1
2017-Jan-20 21:29N 51°54' E 002°55'0 0.1
2017-Jan-20 20:29N 51°54' E 002°55'0 0.1
2017-Jan-20 19:33N 51°54' E 002°55'0 0.3
2017-Jan-20 18:32N 51°54' E 002°55'0 0.1
2017-Jan-20 15:33N 51°54' E 002°55'0 0.0
2017-Jan-20 14:30N 51°54' E 002°55'0 0.0
2017-Jan-20 13:33N 51°54' E 002°55'0 0.0
2017-Jan-20 12:33N 51°54' E 002°55'0 0.1
2017-Jan-20 11:33N 51°54' E 002°55'0 0.2
2017-Jan-20 10:32N 51°54' E 002°55'0 0.1
2017-Jan-20 09:32N 51°54' E 002°55'0 0.1
2017-Jan-20 08:32N 51°54' E 002°55'0 0.0
2017-Jan-20 07:26N 51°54' E 002°55'0 0.0
2017-Jan-20 06:23N 51°54' E 002°55'0 0.1
2017-Jan-20 03:27N 51°54' E 002°55'0 0.0
2017-Jan-20 02:21N 51°54' E 002°55'0 0.0
2017-Jan-20 01:27N 51°54' E 002°55'0 0.0
2017-Jan-20 00:23N 51°54' E 002°55'0 0.0
2017-Jan-19 23:32N 51°54' E 002°55'0 0.1
2017-Jan-19 22:32N 51°54' E 002°55'0 0.2
2017-Jan-19 21:32N 51°54' E 002°55'0 0.1
2017-Jan-19 20:08N 51°54' E 002°55'0 0.0
2017-Jan-19 19:32N 51°54' E 002°55'0 0.1
2017-Jan-19 16:18N 51°54' E 002°55'0 0.0
2017-Jan-19 14:18N 51°54' E 002°55'0 0.0
2017-Jan-19 13:26N 51°54' E 002°55'0 0.0
2017-Jan-19 12:27N 51°54' E 002°55'0 0.1
2017-Jan-19 11:29N 51°54' E 002°55'0 0.2
2017-Jan-19 10:33N 51°54' E 002°55'0 0.2
2017-Jan-19 09:32N 51°54' E 002°55'0 0.1
2017-Jan-19 08:21N 51°54' E 002°55'0 0.0
2017-Jan-19 07:26N 51°54' E 002°55'0 0.0
2017-Jan-19 06:33N 51°54' E 002°55'0 0.0
2017-Jan-19 05:30N 51°54' E 002°55'0 0.2
2017-Jan-19 04:33N 51°54' E 002°55'0 0.2
2017-Jan-19 03:32N 51°54' E 002°55'0 0.0
2017-Jan-19 02:15N 51°54' E 002°55'0 0.0
2017-Jan-19 01:23N 51°54' E 002°55'0 0.0
2017-Jan-19 00:33N 51°54' E 002°55'0 0.0
2017-Jan-18 23:24N 51°54' E 002°55'0 0.1
2017-Jan-18 22:17N 51°54' E 002°55'0 0.2
2017-Jan-18 21:33N 51°54' E 002°55'0 0.0
2017-Jan-18 17:32N 51°54' E 002°55'0 0.1
2017-Jan-18 13:05N 51°54' E 002°55'0 0.0
2017-Jan-18 12:30N 51°54' E 002°55'0 0.0
2017-Jan-18 10:33N 51°54' E 002°55'0 0.2
2017-Jan-18 09:33N 51°54' E 002°55'0 0.0
2017-Jan-18 00:33N 51°54' E 002°55'0 0.1
2017-Jan-17 21:23N 51°54' E 002°55'0 0.2
2017-Jan-17 20:33N 51°54' E 002°55'0 0.0
2017-Jan-17 18:30N 51°54' E 002°55'0 0.0
2017-Jan-17 17:21N 51°54' E 002°55'0 0.0
2017-Jan-17 16:15N 51°54' E 002°55'0 0.1
2017-Jan-17 15:32N 51°54' E 002°55'0 0.1
2017-Jan-17 13:30N 51°54' E 002°55'0 0.0
2017-Jan-17 12:18N 51°54' E 002°55'0 0.0
2017-Jan-17 11:33N 51°54' E 002°55'0 0.0
2017-Jan-17 10:21N 51°54' E 002°55'0 0.2
2017-Jan-17 09:32N 51°54' E 002°55'0 0.2
2017-Jan-17 08:32N 51°54' E 002°55'0 0.1
2017-Jan-17 07:23N 51°54' E 002°55'0 0.1
2017-Jan-17 06:32N 51°54' E 002°55'0 0.0
2017-Jan-17 05:32N 51°54' E 002°55'0 0.0
2017-Jan-17 04:29N 51°54' E 002°55'0 0.0
2017-Jan-17 03:33N 51°54' E 002°55'0 0.2
2017-Jan-17 01:32N 51°54' E 002°55'0 0.0
2017-Jan-17 00:32N 51°54' E 002°55'0 0.0
2017-Jan-16 23:29N 51°54' E 002°55'0 0.0
2017-Jan-16 16:17N 51°54' E 002°55'0 0.0
2017-Jan-16 15:33N 51°54' E 002°55'0 0.2
2017-Jan-16 14:30N 51°54' E 002°55'0 0.0
2017-Jan-16 08:30N 51°54' E 002°55'0 0.1
2017-Jan-16 06:33N 51°54' E 002°55'0 0.0
2017-Jan-16 05:32N 51°54' E 002°55'0 0.0
2017-Jan-16 04:27N 51°54' E 002°55'0 0.1
2017-Jan-16 03:32N 51°54' E 002°55'0 0.2
2017-Jan-16 02:30N 51°54' E 002°55'0 0.2
2017-Jan-16 01:32N 51°54' E 002°55'0 0.1
2017-Jan-16 00:33N 51°54' E 002°54'  

Dump ship's entire track history